createdAt,value
2018-05-16T00:01:01.634Z,11.70
2018-05-16T00:03:29.146Z,11.70
2018-05-16T00:05:56.598Z,11.60
2018-05-16T00:08:24.038Z,11.60
2018-05-16T00:10:51.499Z,11.60
2018-05-16T00:13:18.952Z,11.60
2018-05-16T00:15:46.415Z,11.60
2018-05-16T00:18:13.854Z,11.50
2018-05-16T00:20:41.318Z,11.40
2018-05-16T00:23:08.764Z,11.40
2018-05-16T00:25:36.281Z,11.40
2018-05-16T00:28:03.718Z,11.40
2018-05-16T00:30:31.186Z,11.40
2018-05-16T00:32:58.638Z,11.50
2018-05-16T00:35:26.088Z,11.50
2018-05-16T00:37:53.542Z,11.40
2018-05-16T00:40:21.765Z,11.40
2018-05-16T00:42:49.234Z,11.30
2018-05-16T00:45:16.683Z,11.40
2018-05-16T00:47:44.316Z,11.40
2018-05-16T00:50:11.755Z,11.30
2018-05-16T00:52:39.187Z,11.30
2018-05-16T00:55:06.635Z,11.40
2018-05-16T00:57:34.090Z,11.40
2018-05-16T01:00:01.530Z,11.50
2018-05-16T01:02:29.003Z,11.50
2018-05-16T01:04:56.450Z,11.50
2018-05-16T01:07:23.898Z,11.60
2018-05-16T01:09:51.418Z,11.50
2018-05-16T01:12:18.862Z,11.50
2018-05-16T01:14:46.310Z,11.50
2018-05-16T01:17:13.758Z,11.50
2018-05-16T01:19:41.204Z,11.50
2018-05-16T01:22:08.658Z,11.50
2018-05-16T01:24:36.131Z,11.50
2018-05-16T01:27:04.587Z,11.50
2018-05-16T01:29:32.041Z,11.50
2018-05-16T01:31:59.545Z,11.60
2018-05-16T01:34:27.002Z,11.60
2018-05-16T01:36:54.456Z,11.70
2018-05-16T01:39:21.899Z,11.70
2018-05-16T01:41:49.346Z,11.70
2018-05-16T01:44:16.782Z,11.80
2018-05-16T01:46:44.234Z,11.80
2018-05-16T01:49:19.526Z,11.90
2018-05-16T01:51:47.759Z,12.00
2018-05-16T01:54:15.258Z,11.90
2018-05-16T01:56:43.497Z,12.10
2018-05-16T01:59:10.949Z,12.10
2018-05-16T02:01:38.397Z,12.20
2018-05-16T02:04:05.837Z,12.20
2018-05-16T02:06:33.309Z,12.20
2018-05-16T02:09:00.755Z,12.20
2018-05-16T02:11:28.220Z,12.30
2018-05-16T02:13:55.690Z,12.30
2018-05-16T02:16:23.210Z,12.30
2018-05-16T02:18:50.655Z,12.40
2018-05-16T02:21:18.864Z,12.50
2018-05-16T02:23:47.080Z,12.50
2018-05-16T02:26:14.534Z,12.50
2018-05-16T02:28:41.989Z,12.60
2018-05-16T02:31:09.437Z,12.60
2018-05-16T02:33:36.903Z,12.70
2018-05-16T02:36:04.371Z,12.70
2018-05-16T02:38:31.850Z,12.60
2018-05-16T02:40:59.294Z,12.50
2018-05-16T02:43:26.739Z,12.60
2018-05-16T02:45:54.194Z,12.60
2018-05-16T02:48:21.647Z,12.60
2018-05-16T02:50:49.094Z,12.60
2018-05-16T02:53:16.550Z,12.50
2018-05-16T02:55:44.005Z,12.50
2018-05-16T02:58:11.479Z,12.50
2018-05-16T03:00:38.958Z,12.50
2018-05-16T03:03:06.402Z,12.50
2018-05-16T03:05:33.847Z,12.50
2018-05-16T03:08:01.308Z,12.40
2018-05-16T03:10:28.762Z,12.40
2018-05-16T03:12:56.227Z,12.40
2018-05-16T03:15:23.678Z,12.30
2018-05-16T03:17:51.142Z,12.30
2018-05-16T03:20:18.586Z,12.30
2018-05-16T03:22:46.093Z,12.30
2018-05-16T03:25:13.531Z,12.30
2018-05-16T03:27:40.998Z,12.20
2018-05-16T03:30:08.427Z,12.30
2018-05-16T03:32:35.891Z,12.30
2018-05-16T03:35:03.342Z,12.30
2018-05-16T03:37:30.801Z,12.20
2018-05-16T03:39:58.233Z,12.20
2018-05-16T03:42:25.692Z,12.20
2018-05-16T03:44:53.186Z,12.20
2018-05-16T03:47:20.662Z,12.20
2018-05-16T03:49:48.882Z,12.30
2018-05-16T03:52:16.342Z,12.20
2018-05-16T03:54:43.811Z,12.30
2018-05-16T03:57:23.091Z,12.40
2018-05-16T04:00:02.365Z,12.50
2018-05-16T04:02:41.658Z,12.60
2018-05-16T04:05:09.102Z,12.60
2018-05-16T04:07:36.563Z,12.60
2018-05-16T04:10:04.022Z,12.60
2018-05-16T04:12:31.459Z,12.70
2018-05-16T04:14:58.914Z,12.60
2018-05-16T04:17:26.370Z,12.60
2018-05-16T04:19:53.832Z,12.70
2018-05-16T04:22:21.307Z,12.70
2018-05-16T04:24:48.736Z,12.70
2018-05-16T04:27:16.231Z,12.70
2018-05-16T04:29:43.667Z,12.80
2018-05-16T04:32:11.124Z,12.80
2018-05-16T04:34:38.551Z,12.80
2018-05-16T04:37:06.008Z,12.90
2018-05-16T04:39:33.479Z,12.80
2018-05-16T04:42:00.937Z,12.90
2018-05-16T04:44:28.406Z,13.00
2018-05-16T04:46:55.885Z,13.10
2018-05-16T04:49:23.375Z,13.10
2018-05-16T04:51:50.814Z,13.00
2018-05-16T04:54:18.295Z,13.00
2018-05-16T04:56:45.724Z,13.00
2018-05-16T04:59:13.179Z,13.00
2018-05-16T05:01:40.618Z,13.00
2018-05-16T05:04:08.063Z,13.00
2018-05-16T05:06:35.498Z,13.00
2018-05-16T05:09:03.023Z,13.00
2018-05-16T05:11:30.483Z,13.00
2018-05-16T05:13:57.937Z,13.10
2018-05-16T05:16:25.368Z,13.10
2018-05-16T05:18:53.000Z,13.10
2018-05-16T05:21:20.265Z,13.20
2018-05-16T05:23:47.743Z,13.10
2018-05-16T05:26:15.186Z,13.10
2018-05-16T05:28:43.411Z,13.00
2018-05-16T05:31:10.857Z,12.90
2018-05-16T05:33:38.503Z,13.00
2018-05-16T05:36:05.954Z,13.00
2018-05-16T05:38:33.394Z,13.10
2018-05-16T05:41:01.616Z,13.10
2018-05-16T05:43:29.222Z,13.10
2018-05-16T05:45:56.535Z,13.10
2018-05-16T05:48:23.980Z,13.10
2018-05-16T05:50:51.467Z,13.00
2018-05-16T05:53:18.916Z,13.10
2018-05-16T05:55:46.535Z,13.00
2018-05-16T05:58:14.005Z,12.90
2018-05-16T06:00:41.459Z,12.90
2018-05-16T06:03:08.906Z,12.80
2018-05-16T06:05:36.381Z,12.80
2018-05-16T06:08:03.852Z,12.80
2018-05-16T06:10:31.318Z,12.80
2018-05-16T06:12:58.786Z,12.80
2018-05-16T06:15:26.247Z,12.70
2018-05-16T06:17:53.721Z,12.70
2018-05-16T06:20:21.149Z,12.70
2018-05-16T06:22:48.606Z,12.70
2018-05-16T06:25:16.095Z,12.60
2018-05-16T06:27:44.322Z,12.50
2018-05-16T06:30:11.814Z,12.40
2018-05-16T06:32:39.351Z,12.60
2018-05-16T06:35:06.757Z,12.60
2018-05-16T06:37:34.230Z,12.60
2018-05-16T06:40:01.662Z,12.70
2018-05-16T06:42:29.114Z,12.70
2018-05-16T06:44:56.572Z,12.70
2018-05-16T06:47:24.831Z,12.70
2018-05-16T06:49:52.310Z,12.60
2018-05-16T06:52:20.538Z,12.60
2018-05-16T06:54:48.015Z,12.60
2018-05-16T06:57:15.547Z,12.80
2018-05-16T06:59:43.029Z,12.80
2018-05-16T07:02:10.700Z,12.80
2018-05-16T07:04:38.162Z,12.90
2018-05-16T07:07:05.645Z,12.90
2018-05-16T07:09:33.095Z,12.90
2018-05-16T07:12:00.553Z,12.90
2018-05-16T07:14:28.873Z,12.90
2018-05-16T07:16:56.315Z,13.00
2018-05-16T07:19:23.803Z,13.10
2018-05-16T07:21:51.252Z,13.00
2018-05-16T07:24:18.706Z,13.10
2018-05-16T07:26:46.175Z,13.40
2018-05-16T07:29:13.651Z,13.60
2018-05-16T07:31:41.521Z,13.70
2018-05-16T07:34:08.996Z,13.70
2018-05-16T07:36:37.376Z,13.80
2018-05-16T07:39:06.410Z,13.80
2018-05-16T07:41:33.881Z,14.00
2018-05-16T07:44:01.558Z,14.30
2018-05-16T07:46:29.638Z,14.50
2018-05-16T07:48:57.094Z,14.40
2018-05-16T07:51:24.539Z,14.40
2018-05-16T07:53:51.989Z,14.30
2018-05-16T07:56:19.469Z,14.10
2018-05-16T07:58:46.924Z,14.00
2018-05-16T08:01:14.378Z,13.70
2018-05-16T08:03:41.885Z,13.60
2018-05-16T08:06:10.103Z,13.80
2018-05-16T08:08:37.583Z,13.70
2018-05-16T08:11:05.035Z,13.80
2018-05-16T08:13:32.500Z,13.80
2018-05-16T08:15:59.956Z,13.80
2018-05-16T08:18:27.412Z,13.80
2018-05-16T08:20:54.866Z,13.70
2018-05-16T08:23:22.332Z,13.60
2018-05-16T08:25:49.775Z,13.60
2018-05-16T08:28:17.238Z,13.60
2018-05-16T08:30:44.696Z,13.60
2018-05-16T08:33:12.164Z,13.60
2018-05-16T08:35:39.615Z,13.50
2018-05-16T08:38:07.945Z,13.30
2018-05-16T08:40:36.094Z,13.30
2018-05-16T08:43:03.585Z,13.40
2018-05-16T08:45:31.043Z,13.40
2018-05-16T08:47:58.486Z,13.20
2018-05-16T08:50:25.958Z,13.30
2018-05-16T08:52:53.612Z,13.60
2018-05-16T08:55:21.046Z,13.80
2018-05-16T08:57:48.515Z,13.80
2018-05-16T09:00:16.020Z,13.90
2018-05-16T09:02:43.507Z,13.70
2018-05-16T09:05:10.971Z,13.70
2018-05-16T09:07:38.457Z,13.80
2018-05-16T09:10:05.903Z,13.60
2018-05-16T09:12:33.350Z,13.60
2018-05-16T09:15:00.995Z,13.80
2018-05-16T09:17:28.451Z,14.00
2018-05-16T09:19:55.887Z,14.10
2018-05-16T09:22:23.350Z,14.30
2018-05-16T09:24:51.576Z,14.30
2018-05-16T09:27:19.032Z,14.30
2018-05-16T09:29:46.480Z,14.30
2018-05-16T09:32:13.915Z,14.30
2018-05-16T09:34:41.368Z,14.40
2018-05-16T09:37:09.638Z,14.40
2018-05-16T09:39:37.081Z,14.40
2018-05-16T09:42:05.298Z,14.40
2018-05-16T09:44:32.770Z,14.40
2018-05-16T09:47:00.207Z,14.50
2018-05-16T09:49:27.639Z,14.60
2018-05-16T09:51:55.088Z,14.60
2018-05-16T09:54:22.528Z,14.60
2018-05-16T09:56:49.986Z,14.50
2018-05-16T09:59:17.423Z,14.40
2018-05-16T10:01:44.886Z,14.30
2018-05-16T10:04:13.256Z,14.20
2018-05-16T10:06:40.713Z,14.20
2018-05-16T10:09:08.151Z,14.20
2018-05-16T10:11:35.603Z,14.10
2018-05-16T10:14:03.077Z,14.20
2018-05-16T10:16:30.532Z,14.20
2018-05-16T10:18:57.951Z,14.30
2018-05-16T10:21:26.350Z,14.40
2018-05-16T10:23:53.807Z,14.40
2018-05-16T10:26:21.263Z,14.50
2018-05-16T10:28:48.690Z,14.60
2018-05-16T10:31:16.153Z,14.60
2018-05-16T10:33:43.603Z,14.60
2018-05-16T10:36:11.042Z,14.50
2018-05-16T10:38:38.525Z,14.40
2018-05-16T10:41:05.955Z,14.30
2018-05-16T10:43:33.488Z,14.30
2018-05-16T10:46:00.955Z,14.40
2018-05-16T10:48:28.435Z,14.60
2018-05-16T10:50:55.866Z,14.80
2018-05-16T10:53:24.092Z,15.00
2018-05-16T10:55:52.317Z,15.00
2018-05-16T10:58:19.775Z,14.90
2018-05-16T11:00:47.225Z,15.00
2018-05-16T11:03:14.688Z,15.00
2018-05-16T11:05:42.110Z,15.20
2018-05-16T11:08:09.547Z,15.10
2018-05-16T11:10:37.052Z,15.10
2018-05-16T11:13:04.463Z,15.10
2018-05-16T11:15:31.923Z,15.10
2018-05-16T11:17:59.371Z,15.10
2018-05-16T11:20:26.801Z,14.90
2018-05-16T11:22:54.237Z,14.70
2018-05-16T11:25:21.694Z,14.50
2018-05-16T11:27:49.257Z,14.60
2018-05-16T11:30:16.702Z,14.60
2018-05-16T11:32:44.126Z,14.60
2018-05-16T11:35:11.617Z,14.30
2018-05-16T11:37:39.082Z,14.30
2018-05-16T11:40:06.532Z,14.40
2018-05-16T11:42:33.990Z,14.40
2018-05-16T11:45:01.495Z,14.60
2018-05-16T11:47:28.929Z,14.70
2018-05-16T11:49:56.368Z,14.90
2018-05-16T11:52:23.798Z,15.00
2018-05-16T11:54:51.243Z,15.20
2018-05-16T11:57:18.711Z,15.30
2018-05-16T11:59:46.185Z,15.40
2018-05-16T12:02:13.606Z,15.40
2018-05-16T12:04:41.059Z,15.50
2018-05-16T12:07:08.534Z,15.60
2018-05-16T12:09:36.013Z,15.50
2018-05-16T12:12:03.450Z,15.40
2018-05-16T12:14:31.009Z,15.20
2018-05-16T12:16:58.910Z,15.30
2018-05-16T12:19:26.356Z,15.40
2018-05-16T12:21:53.808Z,15.70
2018-05-16T12:24:21.296Z,16.20
2018-05-16T12:26:48.762Z,16.40
2018-05-16T12:29:16.275Z,16.60
2018-05-16T12:31:43.726Z,16.50
2018-05-16T12:34:11.180Z,16.30
2018-05-16T12:36:38.617Z,16.30
2018-05-16T12:39:07.562Z,16.30
2018-05-16T12:41:35.075Z,16.30
2018-05-16T12:44:03.376Z,16.10
2018-05-16T12:46:30.888Z,15.90
2018-05-16T12:48:58.294Z,15.70
2018-05-16T12:51:25.710Z,15.80
2018-05-16T12:53:53.938Z,15.70
2018-05-16T12:56:21.387Z,15.70
2018-05-16T12:58:48.828Z,15.50
2018-05-16T13:01:16.266Z,15.60
2018-05-16T13:03:43.717Z,15.60
2018-05-16T13:06:12.006Z,15.60
2018-05-16T13:08:39.450Z,15.80
2018-05-16T13:11:07.655Z,16.00
2018-05-16T13:13:35.117Z,15.90
2018-05-16T13:16:02.576Z,16.10
2018-05-16T13:18:30.034Z,16.10
2018-05-16T13:20:57.489Z,16.20
2018-05-16T13:23:24.947Z,16.30
2018-05-16T13:25:52.389Z,16.30
2018-05-16T13:28:19.816Z,16.30
2018-05-16T13:30:47.269Z,16.40
2018-05-16T13:33:14.698Z,16.00
2018-05-16T13:35:42.239Z,15.70
2018-05-16T13:38:10.614Z,16.10
2018-05-16T13:40:38.046Z,16.00
2018-05-16T13:43:05.494Z,16.40
2018-05-16T13:45:32.935Z,16.80
2018-05-16T13:48:00.366Z,17.10
2018-05-16T13:50:28.629Z,17.00
2018-05-16T13:52:56.143Z,16.90
2018-05-16T13:55:24.556Z,17.00
2018-05-16T13:57:51.982Z,17.00
2018-05-16T14:00:19.532Z,17.00
2018-05-16T14:02:46.960Z,16.90
2018-05-16T14:05:14.406Z,16.90
2018-05-16T14:07:41.877Z,16.80
2018-05-16T14:10:09.302Z,16.50
2018-05-16T14:12:36.752Z,16.30
2018-05-16T14:15:04.165Z,16.00
2018-05-16T14:17:32.470Z,15.90
2018-05-16T14:19:59.939Z,15.90
2018-05-16T14:22:27.302Z,16.00
2018-05-16T14:24:54.745Z,16.10
2018-05-16T14:27:22.187Z,16.20
2018-05-16T14:29:49.623Z,16.10
2018-05-16T14:32:17.057Z,16.00
2018-05-16T14:34:44.510Z,15.80
2018-05-16T14:37:11.954Z,15.70
2018-05-16T14:39:39.410Z,15.40
2018-05-16T14:42:06.850Z,15.20
2018-05-16T14:44:34.409Z,15.00
2018-05-16T14:47:01.888Z,15.00
2018-05-16T14:49:29.318Z,15.00
2018-05-16T14:51:56.759Z,14.90
2018-05-16T14:54:24.952Z,15.00
2018-05-16T14:56:52.421Z,14.90
2018-05-16T14:59:19.862Z,15.10
2018-05-16T15:01:47.350Z,15.70
2018-05-16T15:04:14.750Z,16.60
2018-05-16T15:06:42.186Z,18.50
2018-05-16T15:09:09.635Z,20.90
2018-05-16T15:11:37.079Z,22.40
2018-05-16T15:14:04.525Z,24.00
2018-05-16T15:16:31.977Z,24.90
2018-05-16T15:18:59.449Z,25.10
2018-05-16T15:21:26.898Z,24.70
2018-05-16T15:23:54.335Z,24.20
2018-05-16T15:26:21.807Z,23.20
2018-05-16T15:28:49.247Z,22.50
2018-05-16T15:31:16.703Z,22.10
2018-05-16T15:33:44.146Z,21.40
2018-05-16T15:36:11.596Z,20.50
2018-05-16T15:38:39.038Z,19.80
2018-05-16T15:41:06.476Z,19.20
2018-05-16T15:43:33.910Z,18.60
2018-05-16T15:46:01.348Z,18.20
2018-05-16T15:48:28.767Z,17.70
2018-05-16T15:50:56.350Z,17.30
2018-05-16T15:53:23.795Z,16.90
2018-05-16T15:55:51.227Z,16.50
2018-05-16T15:58:18.682Z,16.40
2018-05-16T16:00:46.135Z,16.30
2018-05-16T16:03:13.605Z,16.30
2018-05-16T16:05:41.094Z,16.00
2018-05-16T16:08:08.543Z,15.90
2018-05-16T16:10:35.978Z,15.90
2018-05-16T16:13:03.438Z,15.90
2018-05-16T16:15:30.890Z,15.90
2018-05-16T16:17:58.319Z,15.80
2018-05-16T16:20:25.766Z,15.70
2018-05-16T16:22:53.209Z,15.60
2018-05-16T16:25:20.644Z,15.50
2018-05-16T16:27:48.844Z,14.80
2018-05-16T16:30:16.307Z,14.80
2018-05-16T16:32:43.744Z,14.50
2018-05-16T16:35:11.182Z,14.20
2018-05-16T16:37:38.618Z,13.90
2018-05-16T16:40:06.075Z,13.40
2018-05-16T16:42:33.546Z,13.10
2018-05-16T16:45:01.045Z,12.80
2018-05-16T16:47:28.514Z,12.50
2018-05-16T16:49:55.922Z,12.10
2018-05-16T16:52:24.149Z,11.60
2018-05-16T16:54:51.754Z,11.50
2018-05-16T16:57:19.322Z,11.50
2018-05-16T16:59:46.632Z,11.30
2018-05-16T17:02:14.077Z,11.20
2018-05-16T17:04:41.579Z,11.20
2018-05-16T17:07:08.991Z,11.30
2018-05-16T17:09:36.463Z,11.40
2018-05-16T17:12:03.911Z,11.30
2018-05-16T17:14:31.365Z,11.30
2018-05-16T17:16:58.943Z,11.40
2018-05-16T17:19:26.383Z,11.50
2018-05-16T17:21:53.811Z,11.50
2018-05-16T17:24:21.266Z,11.60
2018-05-16T17:26:48.712Z,11.60
2018-05-16T17:29:16.138Z,11.60
2018-05-16T17:31:43.580Z,11.60
2018-05-16T17:34:11.026Z,11.60
2018-05-16T17:36:38.458Z,11.70
2018-05-16T17:39:06.032Z,11.80
2018-05-16T17:41:33.455Z,11.80
2018-05-16T17:44:00.910Z,11.90
2018-05-16T17:46:28.357Z,11.90
2018-05-16T17:48:55.786Z,11.80
2018-05-16T17:51:23.291Z,11.70
2018-05-16T17:53:50.925Z,11.70
2018-05-16T17:56:18.176Z,11.60
2018-05-16T17:58:45.614Z,11.60
2018-05-16T18:01:14.654Z,11.70
2018-05-16T18:03:42.100Z,11.70
2018-05-16T18:06:09.554Z,11.60
2018-05-16T18:08:36.985Z,11.50
2018-05-16T18:11:04.435Z,11.50
2018-05-16T18:13:54.357Z,11.50
2018-05-16T18:16:33.518Z,11.50
2018-05-16T18:19:00.982Z,11.60
2018-05-16T18:21:28.430Z,11.60
2018-05-16T18:23:55.873Z,11.60
2018-05-16T18:26:23.325Z,11.70
2018-05-16T18:28:51.558Z,11.70
2018-05-16T18:31:18.983Z,11.70
2018-05-16T18:33:46.437Z,11.80
2018-05-16T18:36:13.881Z,11.80
2018-05-16T18:38:41.314Z,11.80
2018-05-16T18:41:08.744Z,11.80
2018-05-16T18:43:36.195Z,11.80
2018-05-16T18:46:03.650Z,11.80
2018-05-16T18:48:31.119Z,11.90
2018-05-16T18:50:58.550Z,11.90
2018-05-16T18:53:26.002Z,11.90
2018-05-16T18:55:53.553Z,11.90
2018-05-16T18:58:20.901Z,11.90
2018-05-16T19:00:48.358Z,11.80
2018-05-16T19:03:15.801Z,11.80
2018-05-16T19:05:43.292Z,11.80
2018-05-16T19:08:10.744Z,11.80
2018-05-16T19:10:38.173Z,11.80
2018-05-16T19:13:05.622Z,11.70
2018-05-16T19:15:33.831Z,11.70
2018-05-16T19:18:01.299Z,11.60
2018-05-16T19:20:28.742Z,11.70
2018-05-16T19:22:56.195Z,11.70
2018-05-16T19:25:23.642Z,11.80
2018-05-16T19:27:51.102Z,11.80
2018-05-16T19:30:18.544Z,11.90
2018-05-16T19:32:46.003Z,11.90
2018-05-16T19:35:13.462Z,12.00
2018-05-16T19:37:40.901Z,11.90
2018-05-16T19:40:08.348Z,11.90
2018-05-16T19:42:35.790Z,12.00
2018-05-16T19:45:03.276Z,12.00
2018-05-16T19:47:30.735Z,12.00
2018-05-16T19:49:58.188Z,12.10
2018-05-16T19:52:25.662Z,12.10
2018-05-16T19:54:53.106Z,12.10
2018-05-16T19:57:20.557Z,12.10
2018-05-16T19:59:48.052Z,12.10
2018-05-16T20:02:15.482Z,12.10
2018-05-16T20:04:42.957Z,12.10
2018-05-16T20:07:10.410Z,12.20
2018-05-16T20:09:37.861Z,12.30
2018-05-16T20:12:06.181Z,12.40
2018-05-16T20:14:33.642Z,12.40
2018-05-16T20:17:01.092Z,12.50
2018-05-16T20:19:28.538Z,12.50
2018-05-16T20:21:55.987Z,12.40
2018-05-16T20:24:23.445Z,12.30
2018-05-16T20:26:50.895Z,12.30
2018-05-16T20:29:18.453Z,12.30
2018-05-16T20:31:45.816Z,12.30
2018-05-16T20:34:13.258Z,12.30
2018-05-16T20:36:40.710Z,12.40
2018-05-16T20:39:08.914Z,12.50
2018-05-16T20:41:36.370Z,12.40
2018-05-16T20:44:03.811Z,12.50
2018-05-16T20:46:31.263Z,12.50
2018-05-16T20:48:58.730Z,12.50
2018-05-16T20:51:26.190Z,12.50
2018-05-16T20:53:53.632Z,12.60
2018-05-16T20:56:21.082Z,12.60
2018-05-16T20:58:48.714Z,12.60
2018-05-16T21:01:15.990Z,12.60
2018-05-16T21:03:43.454Z,12.60
2018-05-16T21:06:10.918Z,12.60
2018-05-16T21:08:38.367Z,12.60
2018-05-16T21:11:05.821Z,12.70
2018-05-16T21:13:33.313Z,12.70
2018-05-16T21:16:00.758Z,12.80
2018-05-16T21:18:28.434Z,12.80
2018-05-16T21:20:55.907Z,12.80
2018-05-16T21:23:23.402Z,12.80
2018-05-16T21:25:50.859Z,12.70
2018-05-16T21:28:18.327Z,12.60
2018-05-16T21:30:45.790Z,12.60
2018-05-16T21:33:13.262Z,12.60
2018-05-16T21:35:40.727Z,12.50
2018-05-16T21:38:08.185Z,12.60
2018-05-16T21:40:35.860Z,12.60
2018-05-16T21:43:03.306Z,12.50
2018-05-16T21:45:30.765Z,12.50
2018-05-16T21:47:58.943Z,12.60
2018-05-16T21:50:26.421Z,12.60
2018-05-16T21:52:53.903Z,12.50
2018-05-16T21:55:21.370Z,12.50
2018-05-16T21:57:48.832Z,12.40
2018-05-16T22:00:16.305Z,12.40
2018-05-16T22:02:44.530Z,12.40
2018-05-16T22:05:12.783Z,12.30
2018-05-16T22:07:40.218Z,12.30
2018-05-16T22:10:08.442Z,12.20
2018-05-16T22:12:35.906Z,12.10
2018-05-16T22:15:03.378Z,12.10
2018-05-16T22:17:30.811Z,12.20
2018-05-16T22:19:58.282Z,12.20
2018-05-16T22:22:25.726Z,12.20
2018-05-16T22:24:53.174Z,12.20
2018-05-16T22:27:20.615Z,12.10
2018-05-16T22:29:48.088Z,12.10
2018-05-16T22:32:21.269Z,12.10
2018-05-16T22:34:54.262Z,12.00
2018-05-16T22:37:27.263Z,12.00
2018-05-16T22:40:00.278Z,12.10
2018-05-16T22:42:29.190Z,12.10
2018-05-16T22:45:03.084Z,12.10
2018-05-16T22:47:30.544Z,12.10
2018-05-16T22:49:58.004Z,12.10
2018-05-16T22:52:25.450Z,12.00
2018-05-16T22:54:52.935Z,12.00
2018-05-16T22:57:21.171Z,11.90
2018-05-16T22:59:48.603Z,11.80
2018-05-16T23:02:16.072Z,11.90
2018-05-16T23:04:43.507Z,11.80
2018-05-16T23:07:10.958Z,11.80
2018-05-16T23:09:38.426Z,11.90
2018-05-16T23:12:05.870Z,11.90
2018-05-16T23:14:33.330Z,11.90
2018-05-16T23:17:00.759Z,11.90
2018-05-16T23:19:28.214Z,11.90
2018-05-16T23:21:55.666Z,12.00
2018-05-16T23:24:23.890Z,12.00
2018-05-16T23:26:51.337Z,11.90
2018-05-16T23:29:18.979Z,12.00
2018-05-16T23:31:46.412Z,12.10
2018-05-16T23:34:13.857Z,12.10
2018-05-16T23:36:41.315Z,12.00
2018-05-16T23:39:08.779Z,12.00
2018-05-16T23:41:36.222Z,12.10
2018-05-16T23:44:03.674Z,12.10
2018-05-16T23:46:31.144Z,12.20
2018-05-16T23:48:58.588Z,12.20
2018-05-16T23:51:26.101Z,12.30
2018-05-16T23:53:53.551Z,12.40
2018-05-16T23:56:21.002Z,12.40
2018-05-16T23:58:48.451Z,12.40
